sensor_id;sensor_type;location;lat;lon;timestamp;P1;durP1;ratioP1;P2;durP2;ratioP2
76693;SDS011;65625;52.136;5.424;2023-02-13T00:00:16;29.30;;;10.75;;
76693;SDS011;65625;52.136;5.424;2023-02-13T00:02:45;24.75;;;8.88;;
76693;SDS011;65625;52.136;5.424;2023-02-13T00:05:12;23.80;;;9.63;;
76693;SDS011;65625;52.136;5.424;2023-02-13T00:07:38;26.65;;;9.93;;
76693;SDS011;65625;52.136;5.424;2023-02-13T00:10:05;23.83;;;9.57;;
76693;SDS011;65625;52.136;5.424;2023-02-13T00:12:33;26.17;;;9.90;;
76693;SDS011;65625;52.136;5.424;2023-02-13T00:14:59;26.33;;;9.23;;
76693;SDS011;65625;52.136;5.424;2023-02-13T00:17:26;24.67;;;9.98;;
76693;SDS011;65625;52.136;5.424;2023-02-13T00:19:53;22.30;;;9.70;;
76693;SDS011;65625;52.136;5.424;2023-02-13T00:22:19;24.17;;;9.38;;
76693;SDS011;65625;52.136;5.424;2023-02-13T00:24:46;21.27;;;8.98;;
76693;SDS011;65625;52.136;5.424;2023-02-13T00:27:12;22.42;;;9.07;;
76693;SDS011;65625;52.136;5.424;2023-02-13T00:29:39;22.50;;;8.90;;
76693;SDS011;65625;52.136;5.424;2023-02-13T00:32:05;21.42;;;9.77;;
76693;SDS011;65625;52.136;5.424;2023-02-13T00:34:32;21.45;;;9.13;;
76693;SDS011;65625;52.136;5.424;2023-02-13T00:37:01;20.58;;;8.23;;
76693;SDS011;65625;52.136;5.424;2023-02-13T00:39:28;19.17;;;9.23;;
76693;SDS011;65625;52.136;5.424;2023-02-13T00:41:54;20.58;;;8.90;;
76693;SDS011;65625;52.136;5.424;2023-02-13T00:44:21;22.58;;;9.07;;
76693;SDS011;65625;52.136;5.424;2023-02-13T00:46:47;22.83;;;8.27;;
76693;SDS011;65625;52.136;5.424;2023-02-13T00:49:15;21.20;;;9.05;;
76693;SDS011;65625;52.136;5.424;2023-02-13T00:51:41;27.67;;;8.27;;
76693;SDS011;65625;52.136;5.424;2023-02-13T00:54:08;23.75;;;8.65;;
76693;SDS011;65625;52.136;5.424;2023-02-13T00:56:35;21.15;;;8.75;;
76693;SDS011;65625;52.136;5.424;2023-02-13T00:59:01;21.20;;;8.05;;
76693;SDS011;65625;52.136;5.424;2023-02-13T01:01:28;18.88;;;7.80;;
76693;SDS011;65625;52.136;5.424;2023-02-13T01:03:55;21.63;;;8.10;;
76693;SDS011;65625;52.136;5.424;2023-02-13T01:06:21;19.08;;;8.35;;
76693;SDS011;65625;52.136;5.424;2023-02-13T01:08:48;22.55;;;9.13;;
76693;SDS011;65625;52.136;5.424;2023-02-13T01:11:14;22.35;;;8.57;;
76693;SDS011;65625;52.136;5.424;2023-02-13T01:13:42;21.58;;;8.73;;
76693;SDS011;65625;52.136;5.424;2023-02-13T01:16:09;21.88;;;9.35;;
76693;SDS011;65625;52.136;5.424;2023-02-13T01:18:36;20.30;;;8.25;;
76693;SDS011;65625;52.136;5.424;2023-02-13T01:21:05;19.63;;;7.80;;
76693;SDS011;65625;52.136;5.424;2023-02-13T01:23:35;22.30;;;9.50;;
76693;SDS011;65625;52.136;5.424;2023-02-13T01:26:03;20.35;;;8.85;;
76693;SDS011;65625;52.136;5.424;2023-02-13T01:28:31;21.27;;;8.18;;
76693;SDS011;65625;52.136;5.424;2023-02-13T01:30:57;23.50;;;9.00;;
76693;SDS011;65625;52.136;5.424;2023-02-13T01:33:25;23.58;;;9.23;;
76693;SDS011;65625;52.136;5.424;2023-02-13T01:35:53;21.77;;;9.20;;
76693;SDS011;65625;52.136;5.424;2023-02-13T01:38:20;20.17;;;8.05;;
76693;SDS011;65625;52.136;5.424;2023-02-13T01:40:48;20.60;;;8.48;;
76693;SDS011;65625;52.136;5.424;2023-02-13T01:43:16;21.38;;;7.90;;
76693;SDS011;65625;52.136;5.424;2023-02-13T01:45:43;22.90;;;8.70;;
76693;SDS011;65625;52.136;5.424;2023-02-13T01:48:14;23.35;;;9.25;;
76693;SDS011;65625;52.136;5.424;2023-02-13T01:50:45;22.08;;;9.45;;
76693;SDS011;65625;52.136;5.424;2023-02-13T01:53:24;24.60;;;9.52;;
76693;SDS011;65625;52.136;5.424;2023-02-13T01:58:23;20.15;;;8.32;;
76693;SDS011;65625;52.136;5.424;2023-02-13T02:00:52;21.23;;;8.38;;
76693;SDS011;65625;52.136;5.424;2023-02-13T02:03:23;22.25;;;8.18;;
76693;SDS011;65625;52.136;5.424;2023-02-13T02:06:07;21.77;;;8.65;;
76693;SDS011;65625;52.136;5.424;2023-02-13T02:08:39;22.15;;;8.70;;
76693;SDS011;65625;52.136;5.424;2023-02-13T02:11:08;22.60;;;8.93;;
76693;SDS011;65625;52.136;5.424;2023-02-13T02:13:42;24.77;;;8.82;;
76693;SDS011;65625;52.136;5.424;2023-02-13T02:16:09;24.40;;;9.98;;
76693;SDS011;65625;52.136;5.424;2023-02-13T02:18:36;22.88;;;8.40;;
76693;SDS011;65625;52.136;5.424;2023-02-13T02:42:49;21.60;;;8.38;;
76693;SDS011;65625;52.136;5.424;2023-02-13T02:57:02;21.10;;;8.85;;
76693;SDS011;65625;52.136;5.424;2023-02-13T02:59:36;22.90;;;8.55;;
76693;SDS011;65625;52.136;5.424;2023-02-13T03:02:23;25.48;;;9.48;;
76693;SDS011;65625;52.136;5.424;2023-02-13T03:05:20;22.45;;;8.68;;
76693;SDS011;65625;52.136;5.424;2023-02-13T03:08:10;21.48;;;8.60;;
76693;SDS011;65625;52.136;5.424;2023-02-13T03:10:37;22.58;;;8.77;;
76693;SDS011;65625;52.136;5.424;2023-02-13T03:16:01;26.92;;;10.52;;
76693;SDS011;65625;52.136;5.424;2023-02-13T03:18:52;23.50;;;9.27;;
76693;SDS011;65625;52.136;5.424;2023-02-13T03:24:57;20.58;;;9.23;;
76693;SDS011;65625;52.136;5.424;2023-02-13T03:36:03;20.33;;;8.05;;
76693;SDS011;65625;52.136;5.424;2023-02-13T03:41:53;24.02;;;8.90;;
76693;SDS011;65625;52.136;5.424;2023-02-13T03:46:53;25.05;;;9.13;;
76693;SDS011;65625;52.136;5.424;2023-02-13T03:49:30;27.30;;;10.07;;
76693;SDS011;65625;52.136;5.424;2023-02-13T03:54:57;22.80;;;9.68;;
76693;SDS011;65625;52.136;5.424;2023-02-13T03:57:45;24.20;;;8.70;;
76693;SDS011;65625;52.136;5.424;2023-02-13T04:00:34;19.45;;;8.27;;
76693;SDS011;65625;52.136;5.424;2023-02-13T04:03:13;24.98;;;9.75;;
76693;SDS011;65625;52.136;5.424;2023-02-13T04:05:53;22.70;;;9.38;;
76693;SDS011;65625;52.136;5.424;2023-02-13T04:08:24;25.25;;;10.05;;
76693;SDS011;65625;52.136;5.424;2023-02-13T04:10:52;27.38;;;9.30;;
76693;SDS011;65625;52.136;5.424;2023-02-13T04:13:34;21.55;;;9.45;;
76693;SDS011;65625;52.136;5.424;2023-02-13T04:18:36;22.27;;;9.15;;
76693;SDS011;65625;52.136;5.424;2023-02-13T04:21:05;27.35;;;10.32;;
76693;SDS011;65625;52.136;5.424;2023-02-13T04:23:33;22.17;;;8.23;;
76693;SDS011;65625;52.136;5.424;2023-02-13T04:26:03;23.33;;;8.55;;
76693;SDS011;65625;52.136;5.424;2023-02-13T04:28:34;22.55;;;8.23;;
76693;SDS011;65625;52.136;5.424;2023-02-13T04:31:00;25.42;;;9.73;;
76693;SDS011;65625;52.136;5.424;2023-02-13T04:33:27;24.25;;;9.55;;
76693;SDS011;65625;52.136;5.424;2023-02-13T04:35:54;20.52;;;8.27;;
76693;SDS011;65625;52.136;5.424;2023-02-13T04:38:22;23.73;;;9.75;;
76693;SDS011;65625;52.136;5.424;2023-02-13T04:40:48;22.88;;;8.63;;
76693;SDS011;65625;52.136;5.424;2023-02-13T04:43:14;21.23;;;8.88;;
76693;SDS011;65625;52.136;5.424;2023-02-13T04:45:41;25.13;;;9.23;;
76693;SDS011;65625;52.136;5.424;2023-02-13T04:48:07;24.30;;;8.48;;
76693;SDS011;65625;52.136;5.424;2023-02-13T04:50:34;22.58;;;8.50;;
76693;SDS011;65625;52.136;5.424;2023-02-13T04:53:01;20.45;;;8.50;;
76693;SDS011;65625;52.136;5.424;2023-02-13T04:55:27;21.02;;;8.93;;
76693;SDS011;65625;52.136;5.424;2023-02-13T04:57:55;22.40;;;9.18;;
76693;SDS011;65625;52.136;5.424;2023-02-13T05:00:23;21.70;;;8.65;;
76693;SDS011;65625;52.136;5.424;2023-02-13T05:02:51;25.10;;;9.27;;
76693;SDS011;65625;52.136;5.424;2023-02-13T05:05:19;25.15;;;9.05;;
76693;SDS011;65625;52.136;5.424;2023-02-13T05:07:46;22.90;;;9.02;;
76693;SDS011;65625;52.136;5.424;2023-02-13T05:10:13;22.67;;;9.27;;
76693;SDS011;65625;52.136;5.424;2023-02-13T05:12:39;21.08;;;8.27;;
76693;SDS011;65625;52.136;5.424;2023-02-13T05:15:06;27.38;;;10.35;;
76693;SDS011;65625;52.136;5.424;2023-02-13T05:17:33;20.17;;;8.40;;
76693;SDS011;65625;52.136;5.424;2023-02-13T05:20:00;20.90;;;8.25;;
76693;SDS011;65625;52.136;5.424;2023-02-13T05:22:26;25.20;;;9.48;;
76693;SDS011;65625;52.136;5.424;2023-02-13T05:25:11;23.13;;;9.77;;
76693;SDS011;65625;52.136;5.424;2023-02-13T05:27:38;28.60;;;10.07;;
76693;SDS011;65625;52.136;5.424;2023-02-13T05:30:04;22.10;;;8.82;;
76693;SDS011;65625;52.136;5.424;2023-02-13T05:32:31;23.95;;;9.43;;
76693;SDS011;65625;52.136;5.424;2023-02-13T05:34:58;26.45;;;9.95;;
76693;SDS011;65625;52.136;5.424;2023-02-13T05:37:24;26.48;;;10.18;;
76693;SDS011;65625;52.136;5.424;2023-02-13T05:39:51;31.17;;;10.45;;
76693;SDS011;65625;52.136;5.424;2023-02-13T05:42:17;23.20;;;9.63;;
76693;SDS011;65625;52.136;5.424;2023-02-13T05:44:44;26.48;;;9.25;;
76693;SDS011;65625;52.136;5.424;2023-02-13T05:47:10;23.42;;;8.82;;
76693;SDS011;65625;52.136;5.424;2023-02-13T05:49:37;25.02;;;9.75;;
76693;SDS011;65625;52.136;5.424;2023-02-13T05:52:03;23.08;;;9.43;;
76693;SDS011;65625;52.136;5.424;2023-02-13T05:54:30;25.88;;;9.85;;
76693;SDS011;65625;52.136;5.424;2023-02-13T05:56:56;23.08;;;9.45;;
76693;SDS011;65625;52.136;5.424;2023-02-13T05:59:23;22.33;;;8.98;;
76693;SDS011;65625;52.136;5.424;2023-02-13T06:01:49;27.17;;;9.88;;
76693;SDS011;65625;52.136;5.424;2023-02-13T06:04:16;24.85;;;9.13;;
76693;SDS011;65625;52.136;5.424;2023-02-13T06:06:42;28.45;;;10.32;;
76693;SDS011;65625;52.136;5.424;2023-02-13T06:09:10;27.65;;;9.77;;
76693;SDS011;65625;52.136;5.424;2023-02-13T06:11:37;22.77;;;9.10;;
76693;SDS011;65625;52.136;5.424;2023-02-13T06:14:03;26.15;;;9.52;;
76693;SDS011;65625;52.136;5.424;2023-02-13T06:16:30;30.50;;;10.82;;
76693;SDS011;65625;52.136;5.424;2023-02-13T06:18:56;27.65;;;9.80;;
76693;SDS011;65625;52.136;5.424;2023-02-13T06:21:23;23.30;;;9.30;;
76693;SDS011;65625;52.136;5.424;2023-02-13T06:23:50;27.70;;;10.20;;
76693;SDS011;65625;52.136;5.424;2023-02-13T06:26:16;26.15;;;9.80;;
76693;SDS011;65625;52.136;5.424;2023-02-13T06:28:43;26.80;;;9.77;;
76693;SDS011;65625;52.136;5.424;2023-02-13T06:31:10;28.60;;;10.32;;
76693;SDS011;65625;52.136;5.424;2023-02-13T06:33:37;27.85;;;11.15;;
76693;SDS011;65625;52.136;5.424;2023-02-13T06:36:03;24.88;;;9.77;;
76693;SDS011;65625;52.136;5.424;2023-02-13T06:38:30;27.17;;;9.77;;
76693;SDS011;65625;52.136;5.424;2023-02-13T06:40:58;26.42;;;9.50;;
76693;SDS011;65625;52.136;5.424;2023-02-13T06:43:27;23.88;;;9.13;;
76693;SDS011;65625;52.136;5.424;2023-02-13T06:45:53;25.77;;;9.98;;
76693;SDS011;65625;52.136;5.424;2023-02-13T06:48:20;27.02;;;10.82;;
76693;SDS011;65625;52.136;5.424;2023-02-13T06:50:47;30.33;;;10.52;;
76693;SDS011;65625;52.136;5.424;2023-02-13T06:53:13;28.55;;;10.18;;
76693;SDS011;65625;52.136;5.424;2023-02-13T06:55:40;28.27;;;10.48;;
76693;SDS011;65625;52.136;5.424;2023-02-13T06:58:07;26.40;;;10.32;;
76693;SDS011;65625;52.136;5.424;2023-02-13T07:00:33;29.52;;;10.88;;
76693;SDS011;65625;52.136;5.424;2023-02-13T07:03:01;30.63;;;10.60;;
76693;SDS011;65625;52.136;5.424;2023-02-13T07:05:29;26.33;;;10.25;;
76693;SDS011;65625;52.136;5.424;2023-02-13T07:07:56;24.17;;;9.55;;
76693;SDS011;65625;52.136;5.424;2023-02-13T07:10:22;28.00;;;11.07;;
76693;SDS011;65625;52.136;5.424;2023-02-13T07:12:49;27.85;;;10.63;;
76693;SDS011;65625;52.136;5.424;2023-02-13T07:15:30;29.15;;;11.18;;
76693;SDS011;65625;52.136;5.424;2023-02-13T07:17:58;29.23;;;10.77;;
76693;SDS011;65625;52.136;5.424;2023-02-13T07:20:25;34.65;;;11.32;;
76693;SDS011;65625;52.136;5.424;2023-02-13T07:22:52;30.30;;;10.75;;
76693;SDS011;65625;52.136;5.424;2023-02-13T07:25:24;25.70;;;11.27;;
76693;SDS011;65625;52.136;5.424;2023-02-13T07:27:50;27.92;;;10.90;;
76693;SDS011;65625;52.136;5.424;2023-02-13T07:30:17;31.17;;;11.35;;
76693;SDS011;65625;52.136;5.424;2023-02-13T07:32:43;27.90;;;11.75;;
76693;SDS011;65625;52.136;5.424;2023-02-13T07:35:10;27.92;;;11.18;;
76693;SDS011;65625;52.136;5.424;2023-02-13T07:37:36;22.83;;;10.45;;
76693;SDS011;65625;52.136;5.424;2023-02-13T07:40:03;31.17;;;11.63;;
76693;SDS011;65625;52.136;5.424;2023-02-13T07:42:32;29.55;;;10.68;;
76693;SDS011;65625;52.136;5.424;2023-02-13T07:44:59;27.48;;;10.98;;
76693;SDS011;65625;52.136;5.424;2023-02-13T07:47:26;31.00;;;11.98;;
76693;SDS011;65625;52.136;5.424;2023-02-13T07:49:53;28.77;;;11.90;;
76693;SDS011;65625;52.136;5.424;2023-02-13T07:52:20;29.33;;;11.55;;
76693;SDS011;65625;52.136;5.424;2023-02-13T07:54:46;25.88;;;11.60;;
76693;SDS011;65625;52.136;5.424;2023-02-13T07:57:13;26.58;;;11.85;;
76693;SDS011;65625;52.136;5.424;2023-02-13T07:59:41;35.10;;;12.52;;
76693;SDS011;65625;52.136;5.424;2023-02-13T08:02:11;27.00;;;12.02;;
76693;SDS011;65625;52.136;5.424;2023-02-13T08:04:39;28.05;;;11.13;;
76693;SDS011;65625;52.136;5.424;2023-02-13T08:07:06;34.88;;;11.25;;
76693;SDS011;65625;52.136;5.424;2023-02-13T08:09:33;31.55;;;12.60;;
76693;SDS011;65625;52.136;5.424;2023-02-13T08:12:17;30.20;;;11.93;;
76693;SDS011;65625;52.136;5.424;2023-02-13T08:14:44;29.20;;;11.60;;
76693;SDS011;65625;52.136;5.424;2023-02-13T08:17:10;32.25;;;12.05;;
76693;SDS011;65625;52.136;5.424;2023-02-13T08:19:37;26.73;;;12.02;;
76693;SDS011;65625;52.136;5.424;2023-02-13T08:22:04;33.08;;;12.73;;
76693;SDS011;65625;52.136;5.424;2023-02-13T08:24:31;29.10;;;12.00;;
76693;SDS011;65625;52.136;5.424;2023-02-13T08:26:58;26.95;;;10.75;;
76693;SDS011;65625;52.136;5.424;2023-02-13T08:29:24;27.63;;;12.07;;
76693;SDS011;65625;52.136;5.424;2023-02-13T08:31:51;27.70;;;11.95;;
76693;SDS011;65625;52.136;5.424;2023-02-13T08:34:17;31.75;;;12.38;;
76693;SDS011;65625;52.136;5.424;2023-02-13T08:36:44;29.13;;;13.18;;
76693;SDS011;65625;52.136;5.424;2023-02-13T08:39:10;26.58;;;11.38;;
76693;SDS011;65625;52.136;5.424;2023-02-13T08:41:37;27.48;;;11.70;;
76693;SDS011;65625;52.136;5.424;2023-02-13T08:44:04;31.42;;;12.95;;
76693;SDS011;65625;52.136;5.424;2023-02-13T08:46:30;24.77;;;11.40;;
76693;SDS011;65625;52.136;5.424;2023-02-13T08:48:57;29.27;;;12.20;;
76693;SDS011;65625;52.136;5.424;2023-02-13T08:51:23;27.55;;;11.35;;
76693;SDS011;65625;52.136;5.424;2023-02-13T08:53:50;27.17;;;12.40;;
76693;SDS011;65625;52.136;5.424;2023-02-13T08:56:16;25.63;;;11.15;;
76693;SDS011;65625;52.136;5.424;2023-02-13T08:58:43;25.88;;;12.00;;
76693;SDS011;65625;52.136;5.424;2023-02-13T09:01:12;25.27;;;11.98;;
76693;SDS011;65625;52.136;5.424;2023-02-13T09:03:39;24.27;;;11.15;;
76693;SDS011;65625;52.136;5.424;2023-02-13T09:06:06;26.95;;;12.00;;
76693;SDS011;65625;52.136;5.424;2023-02-13T09:08:35;22.83;;;10.90;;
76693;SDS011;65625;52.136;5.424;2023-02-13T09:11:02;22.88;;;11.32;;
76693;SDS011;65625;52.136;5.424;2023-02-13T09:13:31;23.95;;;11.10;;
76693;SDS011;65625;52.136;5.424;2023-02-13T09:16:00;24.23;;;11.20;;
76693;SDS011;65625;52.136;5.424;2023-02-13T09:18:28;24.02;;;11.45;;
76693;SDS011;65625;52.136;5.424;2023-02-13T09:21:04;23.95;;;11.07;;
76693;SDS011;65625;52.136;5.424;2023-02-13T09:23:33;23.63;;;11.43;;
76693;SDS011;65625;52.136;5.424;2023-02-13T09:26:02;26.77;;;12.18;;
76693;SDS011;65625;52.136;5.424;2023-02-13T09:28:32;24.90;;;11.38;;
76693;SDS011;65625;52.136;5.424;2023-02-13T09:31:07;26.17;;;11.82;;
76693;SDS011;65625;52.136;5.424;2023-02-13T09:33:34;23.27;;;11.95;;
76693;SDS011;65625;52.136;5.424;2023-02-13T09:36:04;23.65;;;11.50;;
76693;SDS011;65625;52.136;5.424;2023-02-13T09:38:32;22.42;;;11.13;;
76693;SDS011;65625;52.136;5.424;2023-02-13T09:41:06;23.20;;;11.13;;
76693;SDS011;65625;52.136;5.424;2023-02-13T09:43:42;22.15;;;11.32;;
76693;SDS011;65625;52.136;5.424;2023-02-13T09:46:11;23.15;;;10.27;;
76693;SDS011;65625;52.136;5.424;2023-02-13T09:48:42;24.20;;;10.82;;
76693;SDS011;65625;52.136;5.424;2023-02-13T09:51:13;22.55;;;11.80;;
76693;SDS011;65625;52.136;5.424;2023-02-13T09:53:45;21.00;;;11.55;;
76693;SDS011;65625;52.136;5.424;2023-02-13T09:56:16;22.60;;;12.13;;
76693;SDS011;65625;52.136;5.424;2023-02-13T09:58:59;24.27;;;12.75;;
76693;SDS011;65625;52.136;5.424;2023-02-13T10:01:38;20.40;;;11.52;;
76693;SDS011;65625;52.136;5.424;2023-02-13T10:18:11;19.20;;;11.07;;
76693;SDS011;65625;52.136;5.424;2023-02-13T10:20:49;23.35;;;12.23;;
76693;SDS011;65625;52.136;5.424;2023-02-13T10:26:15;24.48;;;12.60;;
76693;SDS011;65625;52.136;5.424;2023-02-13T10:28:52;21.83;;;12.90;;
76693;SDS011;65625;52.136;5.424;2023-02-13T10:31:44;22.35;;;11.82;;
76693;SDS011;65625;52.136;5.424;2023-02-13T10:34:15;20.58;;;11.98;;
76693;SDS011;65625;52.136;5.424;2023-02-13T10:36:43;19.65;;;11.25;;
76693;SDS011;65625;52.136;5.424;2023-02-13T10:42:46;24.15;;;12.05;;
76693;SDS011;65625;52.136;5.424;2023-02-13T10:50:47;19.77;;;11.15;;
76693;SDS011;65625;52.136;5.424;2023-02-13T10:56:26;24.50;;;13.05;;
76693;SDS011;65625;52.136;5.424;2023-02-13T11:04:27;24.65;;;13.25;;
76693;SDS011;65625;52.136;5.424;2023-02-13T11:06:55;21.38;;;12.10;;
76693;SDS011;65625;52.136;5.424;2023-02-13T11:09:24;21.23;;;12.00;;
76693;SDS011;65625;52.136;5.424;2023-02-13T11:11:51;21.40;;;12.35;;
76693;SDS011;65625;52.136;5.424;2023-02-13T11:14:22;20.52;;;12.52;;
76693;SDS011;65625;52.136;5.424;2023-02-13T11:19:29;21.33;;;12.70;;
76693;SDS011;65625;52.136;5.424;2023-02-13T11:22:03;20.60;;;13.00;;
76693;SDS011;65625;52.136;5.424;2023-02-13T11:27:04;23.05;;;13.05;;
76693;SDS011;65625;52.136;5.424;2023-02-13T11:29:36;18.58;;;12.13;;
76693;SDS011;65625;52.136;5.424;2023-02-13T11:34:47;21.98;;;12.85;;
76693;SDS011;65625;52.136;5.424;2023-02-13T11:37:21;18.90;;;11.77;;
76693;SDS011;65625;52.136;5.424;2023-02-13T11:39:51;22.63;;;12.65;;
76693;SDS011;65625;52.136;5.424;2023-02-13T11:42:26;20.40;;;12.85;;
76693;SDS011;65625;52.136;5.424;2023-02-13T11:48:00;21.60;;;13.80;;
76693;SDS011;65625;52.136;5.424;2023-02-13T11:50:41;20.23;;;12.18;;
76693;SDS011;65625;52.136;5.424;2023-02-13T11:53:20;22.45;;;12.32;;
76693;SDS011;65625;52.136;5.424;2023-02-13T11:56:01;23.33;;;13.65;;
76693;SDS011;65625;52.136;5.424;2023-02-13T11:58:28;24.13;;;13.48;;
76693;SDS011;65625;52.136;5.424;2023-02-13T12:06:48;19.00;;;11.55;;
76693;SDS011;65625;52.136;5.424;2023-02-13T12:09:24;24.00;;;10.95;;
76693;SDS011;65625;52.136;5.424;2023-02-13T12:11:53;27.85;;;16.02;;
76693;SDS011;65625;52.136;5.424;2023-02-13T12:14:26;21.70;;;13.05;;
76693;SDS011;65625;52.136;5.424;2023-02-13T12:16:59;22.13;;;11.02;;
76693;SDS011;65625;52.136;5.424;2023-02-13T12:19:32;20.30;;;10.80;;
76693;SDS011;65625;52.136;5.424;2023-02-13T12:41:13;21.75;;;11.32;;
76693;SDS011;65625;52.136;5.424;2023-02-13T12:46:42;19.60;;;10.32;;
76693;SDS011;65625;52.136;5.424;2023-02-13T12:49:19;19.45;;;10.70;;
76693;SDS011;65625;52.136;5.424;2023-02-13T12:52:18;19.83;;;10.30;;
76693;SDS011;65625;52.136;5.424;2023-02-13T13:01:18;24.05;;;11.18;;
76693;SDS011;65625;52.136;5.424;2023-02-13T13:21:25;20.55;;;10.95;;
76693;SDS011;65625;52.136;5.424;2023-02-13T13:26:57;19.80;;;8.85;;
76693;SDS011;65625;52.136;5.424;2023-02-13T13:29:37;19.90;;;9.40;;
76693;SDS011;65625;52.136;5.424;2023-02-13T13:32:11;20.08;;;9.90;;
76693;SDS011;65625;52.136;5.424;2023-02-13T13:34:46;23.55;;;11.75;;
76693;SDS011;65625;52.136;5.424;2023-02-13T13:42:35;20.65;;;10.50;;
76693;SDS011;65625;52.136;5.424;2023-02-13T13:45:51;20.27;;;10.25;;
76693;SDS011;65625;52.136;5.424;2023-02-13T13:51:06;19.40;;;9.45;;
76693;SDS011;65625;52.136;5.424;2023-02-13T13:53:34;19.80;;;9.65;;
76693;SDS011;65625;52.136;5.424;2023-02-13T13:56:03;16.98;;;8.52;;
76693;SDS011;65625;52.136;5.424;2023-02-13T14:01:19;17.45;;;9.20;;
76693;SDS011;65625;52.136;5.424;2023-02-13T14:03:50;18.10;;;9.75;;
76693;SDS011;65625;52.136;5.424;2023-02-13T14:15:47;20.48;;;9.43;;
76693;SDS011;65625;52.136;5.424;2023-02-13T14:18:02;17.27;;;8.88;;
76693;SDS011;65625;52.136;5.424;2023-02-13T14:31:21;20.70;;;10.88;;
76693;SDS011;65625;52.136;5.424;2023-02-13T14:34:02;19.23;;;9.38;;
76693;SDS011;65625;52.136;5.424;2023-02-13T14:36:36;18.92;;;9.85;;
76693;SDS011;65625;52.136;5.424;2023-02-13T14:39:06;22.38;;;9.98;;
76693;SDS011;65625;52.136;5.424;2023-02-13T14:52:58;17.30;;;8.63;;
76693;SDS011;65625;52.136;5.424;2023-02-13T14:58:04;19.23;;;9.80;;
76693;SDS011;65625;52.136;5.424;2023-02-13T15:00:55;18.13;;;9.85;;
76693;SDS011;65625;52.136;5.424;2023-02-13T15:06:32;17.70;;;9.35;;
76693;SDS011;65625;52.136;5.424;2023-02-13T15:09:05;17.35;;;9.50;;
76693;SDS011;65625;52.136;5.424;2023-02-13T15:11:43;16.88;;;8.95;;
76693;SDS011;65625;52.136;5.424;2023-02-13T15:14:17;17.10;;;8.70;;
76693;SDS011;65625;52.136;5.424;2023-02-13T15:17:17;19.45;;;9.02;;
76693;SDS011;65625;52.136;5.424;2023-02-13T15:19:48;21.58;;;9.90;;
76693;SDS011;65625;52.136;5.424;2023-02-13T15:22:18;19.17;;;9.63;;
76693;SDS011;65625;52.136;5.424;2023-02-13T15:24:47;17.40;;;8.70;;
76693;SDS011;65625;52.136;5.424;2023-02-13T15:27:19;18.58;;;9.43;;
76693;SDS011;65625;52.136;5.424;2023-02-13T15:29:58;20.35;;;9.55;;
76693;SDS011;65625;52.136;5.424;2023-02-13T15:32:30;16.90;;;9.20;;
76693;SDS011;65625;52.136;5.424;2023-02-13T15:37:56;17.40;;;9.00;;
76693;SDS011;65625;52.136;5.424;2023-02-13T15:40:30;18.00;;;10.07;;
76693;SDS011;65625;52.136;5.424;2023-02-13T15:43:02;21.35;;;9.85;;
76693;SDS011;65625;52.136;5.424;2023-02-13T15:45:29;17.70;;;8.75;;
76693;SDS011;65625;52.136;5.424;2023-02-13T15:47:55;18.50;;;9.18;;
76693;SDS011;65625;52.136;5.424;2023-02-13T15:50:30;20.05;;;9.38;;
76693;SDS011;65625;52.136;5.424;2023-02-13T15:53:01;18.40;;;9.82;;
76693;SDS011;65625;52.136;5.424;2023-02-13T15:55:31;19.35;;;9.48;;
76693;SDS011;65625;52.136;5.424;2023-02-13T15:58:01;19.23;;;9.65;;
76693;SDS011;65625;52.136;5.424;2023-02-13T16:00:35;19.23;;;9.32;;
76693;SDS011;65625;52.136;5.424;2023-02-13T16:03:05;22.33;;;9.90;;
76693;SDS011;65625;52.136;5.424;2023-02-13T16:05:36;18.55;;;9.25;;
76693;SDS011;65625;52.136;5.424;2023-02-13T16:16:43;18.38;;;9.20;;
76693;SDS011;65625;52.136;5.424;2023-02-13T16:19:33;20.40;;;8.98;;
76693;SDS011;65625;52.136;5.424;2023-02-13T16:22:02;26.35;;;9.73;;
76693;SDS011;65625;52.136;5.424;2023-02-13T16:24:33;19.65;;;9.18;;
76693;SDS011;65625;52.136;5.424;2023-02-13T16:27:01;20.60;;;9.65;;
76693;SDS011;65625;52.136;5.424;2023-02-13T16:29:30;20.33;;;9.82;;
76693;SDS011;65625;52.136;5.424;2023-02-13T16:32:02;21.05;;;10.02;;
76693;SDS011;65625;52.136;5.424;2023-02-13T16:34:32;21.23;;;10.07;;
76693;SDS011;65625;52.136;5.424;2023-02-13T16:36:59;24.65;;;9.90;;
76693;SDS011;65625;52.136;5.424;2023-02-13T16:39:27;20.02;;;10.13;;
76693;SDS011;65625;52.136;5.424;2023-02-13T16:41:59;19.65;;;9.63;;
76693;SDS011;65625;52.136;5.424;2023-02-13T16:44:27;21.00;;;9.13;;
76693;SDS011;65625;52.136;5.424;2023-02-13T16:46:56;19.25;;;8.68;;
76693;SDS011;65625;52.136;5.424;2023-02-13T16:49:27;19.95;;;9.40;;
76693;SDS011;65625;52.136;5.424;2023-02-13T16:52:03;21.13;;;9.13;;
76693;SDS011;65625;52.136;5.424;2023-02-13T16:54:46;19.83;;;9.30;;
76693;SDS011;65625;52.136;5.424;2023-02-13T16:57:17;21.60;;;9.68;;
76693;SDS011;65625;52.136;5.424;2023-02-13T17:02:15;19.65;;;9.73;;
76693;SDS011;65625;52.136;5.424;2023-02-13T17:07:23;20.58;;;9.05;;
76693;SDS011;65625;52.136;5.424;2023-02-13T17:10:02;19.27;;;9.27;;
76693;SDS011;65625;52.136;5.424;2023-02-13T17:12:35;20.77;;;9.85;;
76693;SDS011;65625;52.136;5.424;2023-02-13T17:15:03;18.50;;;9.25;;
76693;SDS011;65625;52.136;5.424;2023-02-13T17:17:32;21.38;;;9.57;;
76693;SDS011;65625;52.136;5.424;2023-02-13T17:19:59;23.80;;;9.80;;
76693;SDS011;65625;52.136;5.424;2023-02-13T17:22:27;28.65;;;10.43;;
76693;SDS011;65625;52.136;5.424;2023-02-13T17:24:58;34.20;;;10.57;;
76693;SDS011;65625;52.136;5.424;2023-02-13T17:27:27;49.55;;;12.32;;
76693;SDS011;65625;52.136;5.424;2023-02-13T17:29:53;66.18;;;15.13;;
76693;SDS011;65625;52.136;5.424;2023-02-13T17:32:21;66.97;;;13.95;;
76693;SDS011;65625;52.136;5.424;2023-02-13T17:34:49;59.85;;;11.95;;
76693;SDS011;65625;52.136;5.424;2023-02-13T17:37:20;54.78;;;14.15;;
76693;SDS011;65625;52.136;5.424;2023-02-13T17:39:49;54.28;;;12.40;;
76693;SDS011;65625;52.136;5.424;2023-02-13T17:42:17;37.17;;;10.57;;
76693;SDS011;65625;52.136;5.424;2023-02-13T17:44:50;39.30;;;11.52;;
76693;SDS011;65625;52.136;5.424;2023-02-13T17:47:21;27.10;;;9.73;;
76693;SDS011;65625;52.136;5.424;2023-02-13T17:49:48;31.00;;;10.13;;
76693;SDS011;65625;52.136;5.424;2023-02-13T17:52:19;27.70;;;11.55;;
76693;SDS011;65625;52.136;5.424;2023-02-13T17:54:47;31.67;;;10.00;;
76693;SDS011;65625;52.136;5.424;2023-02-13T17:57:15;26.55;;;9.38;;
76693;SDS011;65625;52.136;5.424;2023-02-13T17:59:43;28.42;;;10.50;;
76693;SDS011;65625;52.136;5.424;2023-02-13T18:02:12;27.92;;;10.60;;
76693;SDS011;65625;52.136;5.424;2023-02-13T18:04:41;26.00;;;10.90;;
76693;SDS011;65625;52.136;5.424;2023-02-13T18:07:08;23.55;;;9.93;;
76693;SDS011;65625;52.136;5.424;2023-02-13T18:09:36;23.30;;;10.80;;
76693;SDS011;65625;52.136;5.424;2023-02-13T18:12:03;22.38;;;10.60;;
76693;SDS011;65625;52.136;5.424;2023-02-13T18:14:31;22.88;;;9.88;;
76693;SDS011;65625;52.136;5.424;2023-02-13T18:16:59;21.90;;;10.93;;
76693;SDS011;65625;52.136;5.424;2023-02-13T18:19:25;27.80;;;11.38;;
76693;SDS011;65625;52.136;5.424;2023-02-13T18:21:53;33.10;;;12.00;;
76693;SDS011;65625;52.136;5.424;2023-02-13T18:24:19;27.13;;;12.57;;
76693;SDS011;65625;52.136;5.424;2023-02-13T18:26:46;28.27;;;12.65;;
76693;SDS011;65625;52.136;5.424;2023-02-13T18:29:12;28.23;;;11.52;;
76693;SDS011;65625;52.136;5.424;2023-02-13T18:31:39;24.33;;;11.10;;